createdAt,value
2022-10-04T00:01:11.524Z,65.44
2022-10-04T00:03:37.839Z,65.58
2022-10-04T00:06:04.220Z,65.77
2022-10-04T00:08:30.554Z,65.77
2022-10-04T00:10:56.872Z,65.78
2022-10-04T00:13:23.228Z,65.94
2022-10-04T00:15:49.591Z,66.21
2022-10-04T00:18:15.929Z,66.20
2022-10-04T00:20:42.288Z,66.23
2022-10-04T00:23:08.601Z,66.03
2022-10-04T00:25:34.925Z,66.14
2022-10-04T00:28:01.324Z,66.12
2022-10-04T00:30:27.567Z,66.06
2022-10-04T00:32:53.938Z,66.06
2022-10-04T00:35:20.277Z,66.11
2022-10-04T00:37:46.593Z,66.11
2022-10-04T00:40:12.939Z,66.12
2022-10-04T00:42:39.255Z,65.99
2022-10-04T00:45:05.597Z,65.85
2022-10-04T00:47:32.081Z,65.91
2022-10-04T00:49:58.258Z,65.88
2022-10-04T00:52:24.604Z,65.89
2022-10-04T00:54:50.925Z,65.98
2022-10-04T00:57:17.265Z,66.01
2022-10-04T00:59:43.600Z,66.08
2022-10-04T01:02:10.001Z,66.06
2022-10-04T01:04:36.278Z,66.13
2022-10-04T01:07:02.624Z,66.31
2022-10-04T01:09:28.946Z,66.35
2022-10-04T01:11:55.294Z,66.21
2022-10-04T01:14:21.608Z,66.25
2022-10-04T01:16:48.014Z,66.27
2022-10-04T01:19:14.326Z,66.36
2022-10-04T01:21:40.881Z,66.35
2022-10-04T01:24:06.990Z,66.59
2022-10-04T01:26:33.337Z,66.79
2022-10-04T01:28:59.649Z,66.79
2022-10-04T01:31:26.086Z,66.70
2022-10-04T01:33:52.339Z,66.59
2022-10-04T01:36:18.667Z,66.44
2022-10-04T01:38:45.029Z,66.17
2022-10-04T01:41:11.369Z,66.19
2022-10-04T01:43:37.684Z,66.49
2022-10-04T01:46:04.082Z,66.76
2022-10-04T01:48:30.370Z,66.96
2022-10-04T01:50:56.690Z,67.06
2022-10-04T01:53:23.025Z,66.98
2022-10-04T01:55:49.347Z,66.81
2022-10-04T01:58:15.664Z,66.72
2022-10-04T02:00:41.994Z,66.68
2022-10-04T02:03:08.310Z,66.53
2022-10-04T02:05:34.655Z,66.65
2022-10-04T02:08:00.992Z,66.75
2022-10-04T02:10:27.312Z,66.92
2022-10-04T02:12:53.671Z,67.09
2022-10-04T02:15:20.022Z,67.07
2022-10-04T02:17:46.352Z,67.12
2022-10-04T02:20:12.682Z,67.11
2022-10-04T02:22:39.013Z,67.30
2022-10-04T02:25:05.332Z,66.97
2022-10-04T02:27:31.686Z,67.22
2022-10-04T02:29:58.028Z,67.50
2022-10-04T02:32:24.339Z,67.39
2022-10-04T02:34:50.685Z,67.35
2022-10-04T02:37:17.083Z,67.22
2022-10-04T02:39:43.422Z,67.52
2022-10-04T02:42:09.764Z,67.89
2022-10-04T02:44:36.082Z,67.94
2022-10-04T02:47:02.404Z,67.96
2022-10-04T02:49:28.753Z,68.28
2022-10-04T02:51:55.059Z,68.48
2022-10-04T02:54:21.402Z,68.70
2022-10-04T02:56:47.740Z,68.75
2022-10-04T02:59:14.068Z,68.84
2022-10-04T03:01:40.730Z,69.33
2022-10-04T03:04:06.762Z,69.15
2022-10-04T03:06:33.096Z,69.29
2022-10-04T03:08:59.483Z,69.33
2022-10-04T03:11:25.796Z,69.32
2022-10-04T03:13:52.142Z,69.41
2022-10-04T03:16:18.540Z,69.60
2022-10-04T03:18:44.798Z,69.80
2022-10-04T03:21:11.116Z,69.80
2022-10-04T03:23:37.444Z,69.62
2022-10-04T03:26:03.761Z,69.53
2022-10-04T03:28:30.175Z,69.70
2022-10-04T03:30:56.501Z,69.69
2022-10-04T03:33:22.793Z,69.75
2022-10-04T03:35:49.138Z,69.95
2022-10-04T03:38:15.473Z,69.89
2022-10-04T03:40:41.807Z,69.99
2022-10-04T03:43:08.147Z,70.01
2022-10-04T03:45:34.504Z,70.00
2022-10-04T03:48:00.785Z,70.17
2022-10-04T03:50:27.109Z,70.15
2022-10-04T03:52:53.452Z,70.32
2022-10-04T03:55:19.769Z,70.36
2022-10-04T03:57:46.132Z,70.33
2022-10-04T04:00:12.464Z,70.10
2022-10-04T04:02:42.465Z,70.39
2022-10-04T04:05:05.180Z,70.64
2022-10-04T04:07:31.523Z,70.62
2022-10-04T04:09:57.854Z,70.70
2022-10-04T04:12:24.194Z,70.67
2022-10-04T04:14:50.539Z,70.46
2022-10-04T04:17:16.875Z,70.83
2022-10-04T04:19:43.197Z,70.88
2022-10-04T04:22:09.579Z,71.02
2022-10-04T04:24:35.934Z,71.13
2022-10-04T04:27:02.349Z,80.53
2022-10-04T04:29:28.712Z,81.90
2022-10-04T04:31:55.105Z,80.04
2022-10-04T04:34:21.377Z,78.91
2022-10-04T04:36:47.717Z,77.57
2022-10-04T04:39:14.056Z,76.17
2022-10-04T04:41:40.618Z,75.16
2022-10-04T04:44:06.715Z,74.33
2022-10-04T04:46:33.120Z,73.63
2022-10-04T04:48:59.483Z,81.62
2022-10-04T04:51:25.806Z,91.34
2022-10-04T04:53:52.191Z,94.80
2022-10-04T04:56:18.526Z,89.68
2022-10-04T04:58:44.864Z,87.25
2022-10-04T05:01:11.224Z,86.40
2022-10-04T05:03:37.587Z,81.85
2022-10-04T05:06:03.929Z,79.15
2022-10-04T05:08:30.261Z,77.37
2022-10-04T05:10:56.602Z,76.68
2022-10-04T05:13:22.944Z,75.98
2022-10-04T05:15:49.303Z,74.67
2022-10-04T05:18:15.620Z,73.27
2022-10-04T05:20:41.942Z,71.86
2022-10-04T05:23:08.263Z,70.18
2022-10-04T05:25:34.607Z,68.76
2022-10-04T05:28:01.021Z,67.65
2022-10-04T05:30:27.342Z,67.30
2022-10-04T05:32:53.656Z,67.06
2022-10-04T05:35:19.997Z,67.00
2022-10-04T05:37:46.352Z,66.88
2022-10-04T05:40:12.692Z,66.40
2022-10-04T05:42:39.008Z,65.71
2022-10-04T05:45:05.379Z,65.03
2022-10-04T05:47:31.693Z,63.95
2022-10-04T05:49:58.035Z,63.11
2022-10-04T05:52:24.346Z,62.20
2022-10-04T05:54:50.674Z,61.51
2022-10-04T05:57:17.015Z,60.78
2022-10-04T05:59:43.369Z,60.45
2022-10-04T06:02:09.791Z,59.88
2022-10-04T06:04:36.084Z,59.15
2022-10-04T06:07:02.413Z,58.57
2022-10-04T06:09:28.736Z,58.21
2022-10-04T06:11:55.114Z,57.35
2022-10-04T06:14:21.529Z,56.86
2022-10-04T06:16:47.949Z,62.87
2022-10-04T06:19:14.241Z,60.85
2022-10-04T06:21:41.011Z,58.00
2022-10-04T06:24:06.929Z,56.39
2022-10-04T06:26:33.271Z,55.48
2022-10-04T06:28:59.618Z,54.75
2022-10-04T06:31:25.951Z,54.11
2022-10-04T06:33:52.330Z,53.50
2022-10-04T06:36:18.666Z,52.91
2022-10-04T06:38:45.009Z,52.44
2022-10-04T06:41:11.356Z,52.22
2022-10-04T06:43:37.716Z,51.73
2022-10-04T06:46:04.123Z,51.27
2022-10-04T06:48:30.396Z,50.88
2022-10-04T06:50:56.780Z,50.58
2022-10-04T06:53:23.104Z,50.12
2022-10-04T06:55:49.441Z,49.69
2022-10-04T06:58:15.789Z,49.22
2022-10-04T07:00:42.103Z,48.75
2022-10-04T07:03:08.432Z,48.64
2022-10-04T07:05:34.800Z,48.43
2022-10-04T07:08:01.126Z,48.19
2022-10-04T07:10:27.461Z,48.14
2022-10-04T07:12:53.781Z,48.01
2022-10-04T07:15:20.102Z,47.80
2022-10-04T07:17:46.427Z,47.99
2022-10-04T07:20:12.769Z,47.92
2022-10-04T07:22:39.157Z,48.36
2022-10-04T07:25:05.491Z,48.41
2022-10-04T07:27:31.809Z,48.41
2022-10-04T07:29:58.152Z,48.57
2022-10-04T07:32:24.471Z,49.03
2022-10-04T07:34:50.811Z,49.34
2022-10-04T07:37:17.133Z,49.62
2022-10-04T07:39:43.454Z,49.54
2022-10-04T07:42:09.792Z,49.80
2022-10-04T07:44:36.112Z,49.96
2022-10-04T07:47:02.442Z,50.41
2022-10-04T07:49:28.783Z,50.97
2022-10-04T07:51:55.110Z,51.16
2022-10-04T07:54:21.456Z,51.13
2022-10-04T07:56:47.798Z,51.37
2022-10-04T07:59:14.115Z,50.88
2022-10-04T08:01:40.555Z,50.88
2022-10-04T08:04:06.786Z,50.84
2022-10-04T08:06:33.124Z,51.00
2022-10-04T08:08:59.571Z,50.98
2022-10-04T08:11:25.876Z,50.72
2022-10-04T08:13:52.216Z,50.81
2022-10-04T08:16:18.616Z,50.88
2022-10-04T08:18:44.863Z,50.83
2022-10-04T08:21:11.215Z,50.95
2022-10-04T08:23:37.533Z,50.83
2022-10-04T08:26:03.881Z,50.97
2022-10-04T08:28:30.241Z,50.87
2022-10-04T08:30:56.634Z,50.42
2022-10-04T08:33:22.917Z,50.67
2022-10-04T08:35:49.236Z,50.94
2022-10-04T08:38:15.580Z,50.78
2022-10-04T08:40:41.925Z,50.63
2022-10-04T08:43:08.300Z,50.74
2022-10-04T08:45:34.643Z,50.82
2022-10-04T08:48:00.975Z,50.40
2022-10-04T08:50:27.307Z,50.27
2022-10-04T08:52:53.631Z,49.91
2022-10-04T08:55:19.975Z,49.43
2022-10-04T08:57:46.309Z,49.30
2022-10-04T09:00:12.630Z,49.22
2022-10-04T09:02:39.034Z,48.73
2022-10-04T09:05:05.282Z,48.37
2022-10-04T09:07:31.622Z,48.18
2022-10-04T09:09:57.982Z,48.27
2022-10-04T09:12:24.320Z,48.05
2022-10-04T09:14:50.634Z,48.02
2022-10-04T09:17:21.847Z,47.81
2022-10-04T09:19:43.297Z,47.67
2022-10-04T09:22:09.636Z,47.74
2022-10-04T09:24:35.989Z,47.60
2022-10-04T09:27:02.302Z,47.48
2022-10-04T09:29:28.658Z,47.31
2022-10-04T09:31:54.977Z,47.05
2022-10-04T09:34:21.308Z,46.12
2022-10-04T09:36:47.624Z,45.67
2022-10-04T09:39:29.400Z,44.68
2022-10-04T09:41:40.271Z,44.52
2022-10-04T09:44:06.618Z,44.70
2022-10-04T09:46:33.081Z,44.51
2022-10-04T09:48:59.299Z,44.75
2022-10-04T09:51:25.637Z,45.09
2022-10-04T09:53:52.001Z,44.55
2022-10-04T09:56:18.318Z,44.26
2022-10-04T09:58:44.664Z,44.16
2022-10-04T10:01:10.987Z,43.83
2022-10-04T10:03:37.308Z,42.95
2022-10-04T10:06:03.652Z,42.49
2022-10-04T10:08:29.976Z,41.87
2022-10-04T10:10:56.320Z,41.08
2022-10-04T10:13:22.680Z,40.90
2022-10-04T10:15:49.033Z,40.29
2022-10-04T10:18:15.349Z,40.71
2022-10-04T10:20:41.684Z,40.31
2022-10-04T10:23:08.038Z,40.48
2022-10-04T10:25:34.341Z,40.76
2022-10-04T10:28:00.708Z,41.04
2022-10-04T10:30:27.028Z,41.33
2022-10-04T10:32:53.369Z,41.42
2022-10-04T10:35:19.683Z,41.36
2022-10-04T10:37:46.009Z,41.75
2022-10-04T10:40:12.426Z,41.55
2022-10-04T10:42:38.673Z,41.42
2022-10-04T10:45:04.989Z,40.81
2022-10-04T10:47:31.319Z,40.54
2022-10-04T10:49:57.663Z,41.12
2022-10-04T10:52:24.096Z,41.34
2022-10-04T10:54:50.403Z,41.12
2022-10-04T10:57:16.743Z,40.95
2022-10-04T10:59:43.111Z,40.75
2022-10-04T11:02:09.502Z,40.89
2022-10-04T11:04:35.775Z,41.15
2022-10-04T11:07:02.097Z,41.03
2022-10-04T11:09:28.415Z,41.29
2022-10-04T11:11:54.733Z,41.27
2022-10-04T11:14:21.084Z,41.34
2022-10-04T11:16:47.717Z,41.25
2022-10-04T11:19:13.790Z,41.06
2022-10-04T11:21:40.125Z,40.69
2022-10-04T11:24:06.467Z,39.98
2022-10-04T11:26:32.789Z,39.84
2022-10-04T11:28:59.105Z,38.59
2022-10-04T11:31:25.453Z,38.39
2022-10-04T11:33:51.753Z,38.53
2022-10-04T11:36:18.074Z,38.52
2022-10-04T11:38:44.423Z,38.83
2022-10-04T11:41:10.773Z,38.99
2022-10-04T11:43:37.116Z,39.29
2022-10-04T11:46:07.278Z,39.65
2022-10-04T11:48:29.799Z,39.95
2022-10-04T11:50:56.140Z,40.29
2022-10-04T11:53:22.484Z,40.42
2022-10-04T11:55:48.805Z,40.71
2022-10-04T11:58:15.138Z,40.66
2022-10-04T12:00:41.481Z,40.51
2022-10-04T12:03:07.854Z,40.80
2022-10-04T12:05:34.163Z,40.84
2022-10-04T12:08:00.504Z,41.20
2022-10-04T12:18:12.615Z,41.44
2022-10-04T12:20:38.942Z,41.15
2022-10-04T12:23:05.328Z,41.08
2022-10-04T12:25:31.644Z,41.20
2022-10-04T12:27:58.042Z,41.51
2022-10-04T12:30:24.336Z,41.50
2022-10-04T12:32:54.326Z,41.36
2022-10-04T12:35:17.052Z,41.76
2022-10-04T12:37:43.377Z,41.28
2022-10-04T12:40:09.696Z,41.36
2022-10-04T12:42:36.041Z,41.20
2022-10-04T12:45:02.372Z,41.18
2022-10-04T12:47:28.691Z,41.08
2022-10-04T12:49:55.043Z,41.37
2022-10-04T12:52:21.358Z,41.03
2022-10-04T12:54:47.691Z,40.93
2022-10-04T12:57:14.046Z,41.18
2022-10-04T12:59:40.373Z,41.29
2022-10-04T13:02:06.852Z,41.31
2022-10-04T13:04:33.138Z,41.38
2022-10-04T13:06:59.482Z,41.36
2022-10-04T13:09:25.802Z,41.21
2022-10-04T13:11:52.159Z,41.11
2022-10-04T13:14:18.513Z,41.40
2022-10-04T13:19:11.154Z,41.58
2022-10-04T13:21:37.473Z,41.74
2022-10-04T13:24:03.800Z,41.92
2022-10-04T13:26:30.130Z,42.11
2022-10-04T13:28:56.470Z,42.10
2022-10-04T13:31:22.890Z,42.27
2022-10-04T13:33:49.135Z,42.27
2022-10-04T13:36:15.474Z,42.22
2022-10-04T13:38:41.811Z,42.36
2022-10-04T13:41:08.133Z,42.47
2022-10-04T13:43:34.457Z,42.81
2022-10-04T13:46:00.900Z,42.65
2022-10-04T13:48:27.168Z,42.62
2022-10-04T13:50:53.504Z,42.91
2022-10-04T13:53:19.849Z,42.93
2022-10-04T13:55:46.185Z,43.26
2022-10-04T13:58:12.534Z,43.57
2022-10-04T14:00:38.955Z,43.57
2022-10-04T14:03:05.257Z,43.54
2022-10-04T14:05:31.538Z,43.65
2022-10-04T14:07:57.858Z,43.71
2022-10-04T14:10:24.181Z,43.52
2022-10-04T14:12:50.503Z,43.66
2022-10-04T14:15:16.823Z,43.78
2022-10-04T14:17:43.185Z,44.16
2022-10-04T14:20:09.498Z,44.42
2022-10-04T14:22:35.844Z,44.74
2022-10-04T14:25:02.184Z,44.82
2022-10-04T14:27:28.526Z,44.54
2022-10-04T14:29:54.842Z,44.61
2022-10-04T14:32:21.273Z,44.64
2022-10-04T14:34:47.515Z,44.57
2022-10-04T14:37:13.838Z,44.77
2022-10-04T14:39:40.172Z,45.00
2022-10-04T14:42:06.498Z,45.26
2022-10-04T14:44:32.857Z,45.38
2022-10-04T14:46:59.180Z,45.42
2022-10-04T14:49:25.532Z,45.51
2022-10-04T14:51:51.872Z,45.64
2022-10-04T14:54:18.192Z,45.69
2022-10-04T14:56:44.861Z,45.69
2022-10-04T14:59:10.855Z,45.51
2022-10-04T15:01:37.276Z,45.70
2022-10-04T15:04:03.584Z,45.87
2022-10-04T15:06:29.863Z,46.31
2022-10-04T15:08:56.201Z,46.72
2022-10-04T15:11:22.525Z,46.88
2022-10-04T15:13:48.899Z,47.06
2022-10-04T15:16:15.308Z,47.26
2022-10-04T15:18:41.578Z,47.25
2022-10-04T15:21:07.945Z,47.50
2022-10-04T15:23:34.266Z,47.41
2022-10-04T15:26:00.587Z,47.54
2022-10-04T15:28:27.012Z,47.77
2022-10-04T15:30:53.335Z,47.94
2022-10-04T15:33:19.632Z,48.22
2022-10-04T15:35:45.953Z,48.50
2022-10-04T15:38:12.267Z,48.62
2022-10-04T15:40:38.614Z,48.75
2022-10-04T15:43:04.949Z,48.83
2022-10-04T15:45:31.342Z,49.10
2022-10-04T15:47:57.618Z,49.24
2022-10-04T15:50:23.963Z,49.37
2022-10-04T15:52:50.330Z,49.44
2022-10-04T15:55:16.670Z,49.57
2022-10-04T15:57:43.158Z,49.72
2022-10-04T16:00:09.501Z,49.80
2022-10-04T16:02:35.889Z,49.99
2022-10-04T16:05:02.167Z,49.96
2022-10-04T16:07:28.488Z,50.03
2022-10-04T16:09:54.812Z,50.45
2022-10-04T16:12:21.133Z,50.77
2022-10-04T16:14:47.479Z,50.80
2022-10-04T16:17:13.817Z,50.83
2022-10-04T16:19:40.344Z,51.28
2022-10-04T16:22:06.675Z,51.97
2022-10-04T16:24:33.081Z,51.56
2022-10-04T16:26:59.411Z,51.34
2022-10-04T16:29:25.761Z,51.26
2022-10-04T16:31:52.080Z,51.44
2022-10-04T16:34:18.408Z,51.45
2022-10-04T16:36:44.974Z,51.63
2022-10-04T16:39:11.070Z,51.64
2022-10-04T16:41:37.406Z,51.88
2022-10-04T16:44:04.113Z,51.96
2022-10-04T16:46:30.785Z,52.07
2022-10-04T16:48:57.132Z,52.02
2022-10-04T16:51:23.465Z,52.15
2022-10-04T16:53:49.787Z,52.31
2022-10-04T16:56:16.150Z,52.47
2022-10-04T16:58:42.523Z,52.57
2022-10-04T17:01:08.902Z,52.65
2022-10-04T17:03:35.276Z,52.69
2022-10-04T17:06:01.579Z,52.69
2022-10-04T17:08:27.898Z,52.75
2022-10-04T17:10:54.233Z,52.88
2022-10-04T17:13:20.598Z,53.01
2022-10-04T17:15:46.984Z,53.21
2022-10-04T17:18:13.296Z,53.16
2022-10-04T17:20:39.642Z,53.19
2022-10-04T17:23:05.968Z,53.17
2022-10-04T17:25:32.348Z,53.82
2022-10-04T17:27:58.702Z,53.92
2022-10-04T17:30:24.994Z,54.02
2022-10-04T17:32:51.326Z,54.21
2022-10-04T17:35:17.671Z,54.05
2022-10-04T17:37:43.991Z,54.37
2022-10-04T17:40:10.323Z,54.51
2022-10-04T17:42:36.656Z,54.73
2022-10-04T17:45:02.980Z,54.80
2022-10-04T17:47:29.351Z,54.83
2022-10-04T17:49:55.668Z,54.91
2022-10-04T17:52:22.010Z,55.08
2022-10-04T17:54:48.353Z,55.01
2022-10-04T17:57:14.698Z,55.13
2022-10-04T17:59:41.040Z,55.28
2022-10-04T18:02:07.501Z,55.29
2022-10-04T18:04:33.726Z,55.37
2022-10-04T18:07:00.044Z,55.41
2022-10-04T18:09:26.367Z,55.58
2022-10-04T18:11:52.711Z,55.51
2022-10-04T18:14:19.038Z,55.70
2022-10-04T18:16:45.633Z,55.78
2022-10-04T18:19:11.705Z,55.86
2022-10-04T18:21:38.049Z,55.88
2022-10-04T18:24:04.380Z,55.87
2022-10-04T18:26:30.726Z,56.21
2022-10-04T18:28:57.071Z,56.15
2022-10-04T18:31:23.475Z,56.21
2022-10-04T18:33:49.717Z,56.20
2022-10-04T18:36:16.057Z,56.17
2022-10-04T18:38:42.372Z,56.35
2022-10-04T18:41:08.707Z,56.29
2022-10-04T18:43:35.130Z,56.31
2022-10-04T18:46:01.470Z,56.37
2022-10-04T18:48:27.788Z,56.48
2022-10-04T18:50:54.110Z,56.41
2022-10-04T18:53:20.454Z,56.46
2022-10-04T18:55:46.825Z,56.45
2022-10-04T18:58:13.137Z,56.49
2022-10-04T19:00:39.532Z,56.65
2022-10-04T19:03:05.838Z,56.67
2022-10-04T19:05:32.156Z,56.79
2022-10-04T19:07:58.480Z,56.78
2022-10-04T19:10:24.817Z,56.89
2022-10-04T19:12:51.149Z,56.98
2022-10-04T19:15:17.495Z,57.05
2022-10-04T19:17:43.864Z,57.09
2022-10-04T19:20:11.445Z,57.24
2022-10-04T19:22:36.553Z,57.18
2022-10-04T19:25:02.900Z,57.41
2022-10-04T19:27:29.284Z,57.35
2022-10-04T19:29:55.600Z,57.62
2022-10-04T19:32:21.908Z,57.90
2022-10-04T19:34:48.254Z,57.97
2022-10-04T19:37:14.607Z,57.90
2022-10-04T19:39:40.928Z,57.99
2022-10-04T19:42:07.274Z,58.17
2022-10-04T19:44:33.657Z,58.33
2022-10-04T19:46:59.976Z,58.39
2022-10-04T19:49:26.299Z,58.39
2022-10-04T19:51:52.727Z,58.41
2022-10-04T19:54:19.050Z,58.81
2022-10-04T19:56:45.637Z,59.08
2022-10-04T19:59:11.709Z,58.93
2022-10-04T20:01:38.057Z,58.86
2022-10-04T20:04:04.460Z,58.95
2022-10-04T20:06:30.748Z,59.08
2022-10-04T20:09:02.199Z,59.00
2022-10-04T20:11:23.448Z,59.00
2022-10-04T20:13:49.789Z,58.80
2022-10-04T20:16:16.133Z,60.74
2022-10-04T20:18:42.486Z,60.60
2022-10-04T20:21:08.824Z,60.29
2022-10-04T20:23:35.166Z,59.93
2022-10-04T20:26:01.533Z,59.90
2022-10-04T20:28:27.939Z,60.05
2022-10-04T20:30:54.216Z,60.08
2022-10-04T20:33:20.549Z,60.12
2022-10-04T20:35:46.905Z,60.21
2022-10-04T20:38:31.219Z,60.35
2022-10-04T20:40:39.819Z,60.32
2022-10-04T20:43:10.225Z,60.18
2022-10-04T20:45:32.530Z,60.42
2022-10-04T20:47:58.852Z,60.29
2022-10-04T20:50:25.224Z,60.39
2022-10-04T20:52:51.514Z,60.67
2022-10-04T20:55:17.845Z,60.68
2022-10-04T20:57:44.190Z,60.72
2022-10-04T21:00:10.587Z,60.70
2022-10-04T21:02:36.923Z,60.70
2022-10-04T21:05:03.348Z,60.89
2022-10-04T21:07:29.682Z,60.96
2022-10-04T21:09:56.013Z,61.40
2022-10-04T21:12:22.351Z,61.36
2022-10-04T21:14:48.668Z,61.49
2022-10-04T21:17:15.011Z,61.38
2022-10-04T21:19:41.347Z,61.56
2022-10-04T21:22:07.718Z,61.72
2022-10-04T21:24:34.033Z,61.96
2022-10-04T21:27:00.379Z,62.01
2022-10-04T21:29:26.735Z,62.09
2022-10-04T21:31:53.089Z,62.40
2022-10-04T21:34:41.107Z,62.50
2022-10-04T21:36:46.006Z,62.58
2022-10-04T21:39:12.076Z,62.51
2022-10-04T21:41:38.446Z,62.72
2022-10-04T21:44:04.791Z,62.73
2022-10-04T21:46:31.178Z,62.78
2022-10-04T21:48:57.434Z,62.89
2022-10-04T21:51:23.771Z,63.12
2022-10-04T21:53:50.114Z,63.34
2022-10-04T21:56:16.448Z,63.20
2022-10-04T21:58:42.840Z,63.16
2022-10-04T22:01:09.218Z,63.17
2022-10-04T22:03:35.486Z,63.25
2022-10-04T22:06:01.869Z,63.55
2022-10-04T22:08:28.189Z,63.59
2022-10-04T22:10:57.712Z,63.77
2022-10-04T22:13:20.856Z,63.97
2022-10-04T22:15:47.173Z,64.37
2022-10-04T22:18:13.494Z,64.50
2022-10-04T22:20:39.874Z,64.70
2022-10-04T22:23:06.216Z,64.96
2022-10-04T22:25:32.531Z,65.05
2022-10-04T22:27:58.980Z,65.13
2022-10-04T22:30:25.257Z,65.28
2022-10-04T22:32:51.600Z,65.27
2022-10-04T22:35:17.925Z,65.54
2022-10-04T22:37:44.270Z,65.86
2022-10-04T22:40:10.607Z,66.00
2022-10-04T22:42:36.944Z,66.08
2022-10-04T22:45:03.304Z,65.84
2022-10-04T22:47:29.644Z,65.56
2022-10-04T22:49:55.976Z,65.39
2022-10-04T22:52:22.321Z,65.52
2022-10-04T22:54:48.633Z,65.50
2022-10-04T22:57:14.978Z,65.33
2022-10-04T22:59:41.315Z,65.24
2022-10-04T23:02:07.637Z,65.68
2022-10-04T23:04:34.023Z,65.81
2022-10-04T23:07:00.292Z,66.13
2022-10-04T23:09:26.623Z,66.57
2022-10-04T23:11:52.946Z,66.75
2022-10-04T23:14:19.283Z,66.84
2022-10-04T23:16:45.826Z,66.66
2022-10-04T23:19:11.941Z,66.63
2022-10-04T23:21:38.265Z,66.75
2022-10-04T23:24:04.603Z,66.78
2022-10-04T23:26:30.945Z,67.12
2022-10-04T23:28:57.259Z,67.58
2022-10-04T23:31:23.677Z,67.44
2022-10-04T23:33:49.948Z,66.96
2022-10-04T23:36:16.270Z,66.87
2022-10-04T23:38:42.652Z,66.65
2022-10-04T23:41:08.967Z,66.35
2022-10-04T23:43:35.294Z,66.41
2022-10-04T23:46:01.715Z,66.62
2022-10-04T23:48:27.958Z,66.43
2022-10-04T23:50:54.310Z,66.55
2022-10-04T23:53:20.705Z,66.73
2022-10-04T23:55:47.045Z,67.07
2022-10-04T23:58:13.357Z,67.11
